sensor_id;sensor_type;location;lat;lon;timestamp;temperature;humidity
71994;DHT22;59861;50.268;8.648;2023-05-20T00:00:30;15.90;67.20
71994;DHT22;59861;50.268;8.648;2023-05-20T00:02:57;15.90;67.20
71994;DHT22;59861;50.268;8.648;2023-05-20T00:05:25;15.90;67.20
71994;DHT22;59861;50.268;8.648;2023-05-20T00:07:52;15.90;67.10
71994;DHT22;59861;50.268;8.648;2023-05-20T00:10:19;15.90;67.20
71994;DHT22;59861;50.268;8.648;2023-05-20T00:12:46;15.90;67.10
71994;DHT22;59861;50.268;8.648;2023-05-20T00:15:12;15.90;67.20
71994;DHT22;59861;50.268;8.648;2023-05-20T00:17:39;15.90;67.10
71994;DHT22;59861;50.268;8.648;2023-05-20T00:20:06;15.90;67.10
71994;DHT22;59861;50.268;8.648;2023-05-20T00:22:33;15.90;67.10
71994;DHT22;59861;50.268;8.648;2023-05-20T00:25:00;15.90;67.10
71994;DHT22;59861;50.268;8.648;2023-05-20T00:27:26;15.90;67.10
71994;DHT22;59861;50.268;8.648;2023-05-20T00:29:53;15.90;67.10
71994;DHT22;59861;50.268;8.648;2023-05-20T00:32:20;15.90;67.10
71994;DHT22;59861;50.268;8.648;2023-05-20T00:34:56;15.80;67.10
71994;DHT22;59861;50.268;8.648;2023-05-20T00:37:23;15.90;67.10
71994;DHT22;59861;50.268;8.648;2023-05-20T00:39:50;15.90;67.10
71994;DHT22;59861;50.268;8.648;2023-05-20T00:42:20;15.90;67.10
71994;DHT22;59861;50.268;8.648;2023-05-20T00:44:47;15.80;67.00
71994;DHT22;59861;50.268;8.648;2023-05-20T00:47:17;15.80;67.00
71994;DHT22;59861;50.268;8.648;2023-05-20T00:49:45;15.80;67.20
71994;DHT22;59861;50.268;8.648;2023-05-20T00:52:12;15.80;67.10
71994;DHT22;59861;50.268;8.648;2023-05-20T00:54:40;15.80;67.00
71994;DHT22;59861;50.268;8.648;2023-05-20T00:57:07;15.90;67.10
71994;DHT22;59861;50.268;8.648;2023-05-20T00:59:35;15.90;67.10
71994;DHT22;59861;50.268;8.648;2023-05-20T01:02:02;15.80;67.10
71994;DHT22;59861;50.268;8.648;2023-05-20T01:04:30;15.90;67.10
71994;DHT22;59861;50.268;8.648;2023-05-20T01:06:57;15.90;67.10
71994;DHT22;59861;50.268;8.648;2023-05-20T01:09:24;15.90;67.10
71994;DHT22;59861;50.268;8.648;2023-05-20T01:12:38;15.80;67.00
71994;DHT22;59861;50.268;8.648;2023-05-20T01:14:19;15.80;67.20
71994;DHT22;59861;50.268;8.648;2023-05-20T01:16:48;15.90;67.10
71994;DHT22;59861;50.268;8.648;2023-05-20T01:19:26;15.90;67.10
71994;DHT22;59861;50.268;8.648;2023-05-20T01:21:53;15.80;67.00
71994;DHT22;59861;50.268;8.648;2023-05-20T01:24:20;15.90;67.30
71994;DHT22;59861;50.268;8.648;2023-05-20T01:26:47;15.80;67.10
71994;DHT22;59861;50.268;8.648;2023-05-20T01:29:15;15.90;67.00
71994;DHT22;59861;50.268;8.648;2023-05-20T01:31:43;15.80;66.80
71994;DHT22;59861;50.268;8.648;2023-05-20T01:34:11;15.90;67.10
71994;DHT22;59861;50.268;8.648;2023-05-20T01:36:38;15.80;66.90
71994;DHT22;59861;50.268;8.648;2023-05-20T01:39:06;15.80;66.90
71994;DHT22;59861;50.268;8.648;2023-05-20T01:41:33;15.90;66.90
71994;DHT22;59861;50.268;8.648;2023-05-20T01:44:01;15.80;66.90
71994;DHT22;59861;50.268;8.648;2023-05-20T01:46:31;15.90;67.00
71994;DHT22;59861;50.268;8.648;2023-05-20T01:48:56;15.90;66.50
71994;DHT22;59861;50.268;8.648;2023-05-20T01:51:23;15.80;67.80
71994;DHT22;59861;50.268;8.648;2023-05-20T01:53:50;15.90;66.90
71994;DHT22;59861;50.268;8.648;2023-05-20T01:56:17;15.90;67.00
71994;DHT22;59861;50.268;8.648;2023-05-20T01:58:44;15.80;66.90
71994;DHT22;59861;50.268;8.648;2023-05-20T02:01:11;15.80;66.80
71994;DHT22;59861;50.268;8.648;2023-05-20T02:03:37;15.80;66.80
71994;DHT22;59861;50.268;8.648;2023-05-20T02:06:04;15.80;66.90
71994;DHT22;59861;50.268;8.648;2023-05-20T02:08:31;15.90;67.00
71994;DHT22;59861;50.268;8.648;2023-05-20T02:10:58;15.80;66.80
71994;DHT22;59861;50.268;8.648;2023-05-20T02:13:24;15.80;66.90
71994;DHT22;59861;50.268;8.648;2023-05-20T02:15:51;15.80;66.80
71994;DHT22;59861;50.268;8.648;2023-05-20T02:18:18;15.80;66.90
71994;DHT22;59861;50.268;8.648;2023-05-20T02:20:45;15.80;67.20
71994;DHT22;59861;50.268;8.648;2023-05-20T02:23:12;15.80;66.90
71994;DHT22;59861;50.268;8.648;2023-05-20T02:25:39;15.80;66.90
71994;DHT22;59861;50.268;8.648;2023-05-20T02:28:06;15.80;66.80
71994;DHT22;59861;50.268;8.648;2023-05-20T02:30:36;15.80;66.80
71994;DHT22;59861;50.268;8.648;2023-05-20T02:33:03;15.80;66.90
71994;DHT22;59861;50.268;8.648;2023-05-20T02:35:30;15.80;66.90
71994;DHT22;59861;50.268;8.648;2023-05-20T02:37:57;15.80;66.90
71994;DHT22;59861;50.268;8.648;2023-05-20T02:40:23;15.80;66.90
71994;DHT22;59861;50.268;8.648;2023-05-20T02:42:50;15.80;66.80
71994;DHT22;59861;50.268;8.648;2023-05-20T02:45:17;15.80;67.50
71994;DHT22;59861;50.268;8.648;2023-05-20T02:47:44;15.80;66.80
71994;DHT22;59861;50.268;8.648;2023-05-20T02:50:11;15.80;66.80
71994;DHT22;59861;50.268;8.648;2023-05-20T02:52:37;15.80;66.80
71994;DHT22;59861;50.268;8.648;2023-05-20T02:55:06;15.80;66.80
71994;DHT22;59861;50.268;8.648;2023-05-20T02:57:33;15.80;66.80
71994;DHT22;59861;50.268;8.648;2023-05-20T03:00:02;15.80;66.80
71994;DHT22;59861;50.268;8.648;2023-05-20T03:02:30;15.80;66.70
71994;DHT22;59861;50.268;8.648;2023-05-20T03:04:57;15.80;66.80
71994;DHT22;59861;50.268;8.648;2023-05-20T03:07:24;15.80;66.70
71994;DHT22;59861;50.268;8.648;2023-05-20T03:09:51;15.80;66.70
71994;DHT22;59861;50.268;8.648;2023-05-20T03:12:17;15.80;66.80
71994;DHT22;59861;50.268;8.648;2023-05-20T03:14:44;15.80;67.10
71994;DHT22;59861;50.268;8.648;2023-05-20T03:17:11;15.80;66.80
71994;DHT22;59861;50.268;8.648;2023-05-20T03:19:38;15.80;66.70
71994;DHT22;59861;50.268;8.648;2023-05-20T03:22:05;15.80;66.70
71994;DHT22;59861;50.268;8.648;2023-05-20T03:24:32;15.80;66.70
71994;DHT22;59861;50.268;8.648;2023-05-20T03:26:59;15.80;66.70
71994;DHT22;59861;50.268;8.648;2023-05-20T03:29:26;15.80;66.70
71994;DHT22;59861;50.268;8.648;2023-05-20T03:31:53;15.80;66.80
71994;DHT22;59861;50.268;8.648;2023-05-20T03:34:19;15.80;66.80
71994;DHT22;59861;50.268;8.648;2023-05-20T03:36:46;15.80;66.70
71994;DHT22;59861;50.268;8.648;2023-05-20T03:39:13;15.80;66.70
71994;DHT22;59861;50.268;8.648;2023-05-20T03:41:40;15.80;66.70
71994;DHT22;59861;50.268;8.648;2023-05-20T03:44:07;15.80;66.80
71994;DHT22;59861;50.268;8.648;2023-05-20T03:46:34;15.80;66.60
71994;DHT22;59861;50.268;8.648;2023-05-20T03:49:01;15.80;66.70
71994;DHT22;59861;50.268;8.648;2023-05-20T03:51:28;15.80;66.70
71994;DHT22;59861;50.268;8.648;2023-05-20T03:53:56;15.80;66.70
71994;DHT22;59861;50.268;8.648;2023-05-20T03:56:22;15.80;66.60
71994;DHT22;59861;50.268;8.648;2023-05-20T03:58:49;15.80;67.60
71994;DHT22;59861;50.268;8.648;2023-05-20T04:01:16;15.80;66.60
71994;DHT22;59861;50.268;8.648;2023-05-20T04:03:43;15.80;66.60
71994;DHT22;59861;50.268;8.648;2023-05-20T04:06:10;15.80;67.70
71994;DHT22;59861;50.268;8.648;2023-05-20T04:08:36;15.80;66.60
71994;DHT22;59861;50.268;8.648;2023-05-20T04:11:03;15.80;66.80
71994;DHT22;59861;50.268;8.648;2023-05-20T04:13:30;15.80;66.70
71994;DHT22;59861;50.268;8.648;2023-05-20T04:15:57;15.80;66.60
71994;DHT22;59861;50.268;8.648;2023-05-20T04:18:26;15.80;66.60
71994;DHT22;59861;50.268;8.648;2023-05-20T04:20:55;15.80;66.60
71994;DHT22;59861;50.268;8.648;2023-05-20T04:23:22;15.80;66.60
71994;DHT22;59861;50.268;8.648;2023-05-20T04:25:49;15.80;66.70
71994;DHT22;59861;50.268;8.648;2023-05-20T04:28:16;15.80;66.60
71994;DHT22;59861;50.268;8.648;2023-05-20T04:30:42;15.80;66.60
71994;DHT22;59861;50.268;8.648;2023-05-20T04:33:10;15.80;66.70
71994;DHT22;59861;50.268;8.648;2023-05-20T04:35:37;15.80;66.60
71994;DHT22;59861;50.268;8.648;2023-05-20T04:38:06;15.80;66.60
71994;DHT22;59861;50.268;8.648;2023-05-20T04:40:33;15.80;66.60
71994;DHT22;59861;50.268;8.648;2023-05-20T04:43:00;15.80;66.60
71994;DHT22;59861;50.268;8.648;2023-05-20T04:45:28;15.80;66.60
71994;DHT22;59861;50.268;8.648;2023-05-20T04:47:55;15.80;66.60
71994;DHT22;59861;50.268;8.648;2023-05-20T04:50:22;15.80;66.60
71994;DHT22;59861;50.268;8.648;2023-05-20T04:52:49;15.80;66.60
71994;DHT22;59861;50.268;8.648;2023-05-20T04:55:16;15.80;66.60
71994;DHT22;59861;50.268;8.648;2023-05-20T04:57:44;15.80;66.60
71994;DHT22;59861;50.268;8.648;2023-05-20T05:00:11;15.80;66.60
71994;DHT22;59861;50.268;8.648;2023-05-20T05:02:38;15.80;66.60
71994;DHT22;59861;50.268;8.648;2023-05-20T05:05:05;15.80;66.60
71994;DHT22;59861;50.268;8.648;2023-05-20T05:07:32;15.80;66.50
71994;DHT22;59861;50.268;8.648;2023-05-20T05:09:59;15.80;66.50
71994;DHT22;59861;50.268;8.648;2023-05-20T05:12:25;15.80;66.50
71994;DHT22;59861;50.268;8.648;2023-05-20T05:14:52;15.80;66.50
71994;DHT22;59861;50.268;8.648;2023-05-20T05:17:19;15.80;66.50
71994;DHT22;59861;50.268;8.648;2023-05-20T05:19:46;15.80;66.50
71994;DHT22;59861;50.268;8.648;2023-05-20T05:22:13;15.80;66.50
71994;DHT22;59861;50.268;8.648;2023-05-20T05:24:39;15.80;66.50
71994;DHT22;59861;50.268;8.648;2023-05-20T05:27:06;15.80;66.50
71994;DHT22;59861;50.268;8.648;2023-05-20T05:29:33;15.80;66.60
71994;DHT22;59861;50.268;8.648;2023-05-20T05:32:00;15.80;66.50
71994;DHT22;59861;50.268;8.648;2023-05-20T05:34:27;15.80;66.50
71994;DHT22;59861;50.268;8.648;2023-05-20T05:36:53;15.80;66.50
71994;DHT22;59861;50.268;8.648;2023-05-20T05:39:20;15.80;66.50
71994;DHT22;59861;50.268;8.648;2023-05-20T05:41:47;15.80;66.50
71994;DHT22;59861;50.268;8.648;2023-05-20T05:44:14;15.80;66.50
71994;DHT22;59861;50.268;8.648;2023-05-20T05:46:41;15.70;66.40
71994;DHT22;59861;50.268;8.648;2023-05-20T05:49:07;15.80;66.40
71994;DHT22;59861;50.268;8.648;2023-05-20T05:51:34;15.80;67.50
71994;DHT22;59861;50.268;8.648;2023-05-20T05:54:01;15.80;66.50
71994;DHT22;59861;50.268;8.648;2023-05-20T05:56:28;15.80;66.50
71994;DHT22;59861;50.268;8.648;2023-05-20T05:58:55;15.80;66.40
71994;DHT22;59861;50.268;8.648;2023-05-20T06:01:21;15.80;66.50
71994;DHT22;59861;50.268;8.648;2023-05-20T06:03:48;15.80;66.40
71994;DHT22;59861;50.268;8.648;2023-05-20T06:06:15;15.80;66.40
71994;DHT22;59861;50.268;8.648;2023-05-20T06:08:42;15.80;66.50
71994;DHT22;59861;50.268;8.648;2023-05-20T06:11:09;15.80;66.40
71994;DHT22;59861;50.268;8.648;2023-05-20T06:13:36;15.80;66.40
71994;DHT22;59861;50.268;8.648;2023-05-20T06:16:03;15.80;66.40
71994;DHT22;59861;50.268;8.648;2023-05-20T06:18:30;15.80;66.40
71994;DHT22;59861;50.268;8.648;2023-05-20T06:20:57;15.80;66.40
71994;DHT22;59861;50.268;8.648;2023-05-20T06:23:24;15.80;66.40
71994;DHT22;59861;50.268;8.648;2023-05-20T06:25:51;15.80;66.30
71994;DHT22;59861;50.268;8.648;2023-05-20T06:28:19;15.80;66.40
71994;DHT22;59861;50.268;8.648;2023-05-20T06:30:46;15.80;66.40
71994;DHT22;59861;50.268;8.648;2023-05-20T06:33:12;15.80;66.40
71994;DHT22;59861;50.268;8.648;2023-05-20T06:35:39;15.80;66.30
71994;DHT22;59861;50.268;8.648;2023-05-20T06:38:06;15.80;66.40
71994;DHT22;59861;50.268;8.648;2023-05-20T06:40:33;15.80;66.30
71994;DHT22;59861;50.268;8.648;2023-05-20T06:43:00;15.80;66.50
71994;DHT22;59861;50.268;8.648;2023-05-20T06:45:26;15.80;66.40
71994;DHT22;59861;50.268;8.648;2023-05-20T06:47:53;15.80;66.40
71994;DHT22;59861;50.268;8.648;2023-05-20T06:50:20;15.80;66.40
71994;DHT22;59861;50.268;8.648;2023-05-20T06:52:47;15.80;66.40
71994;DHT22;59861;50.268;8.648;2023-05-20T06:55:14;15.80;66.40
71994;DHT22;59861;50.268;8.648;2023-05-20T06:57:41;15.80;66.30
71994;DHT22;59861;50.268;8.648;2023-05-20T07:00:08;15.80;66.30
71994;DHT22;59861;50.268;8.648;2023-05-20T07:02:35;15.80;66.20
71994;DHT22;59861;50.268;8.648;2023-05-20T07:05:01;15.80;66.10
71994;DHT22;59861;50.268;8.648;2023-05-20T07:07:28;15.80;66.30
71994;DHT22;59861;50.268;8.648;2023-05-20T07:09:56;15.80;66.20
71994;DHT22;59861;50.268;8.648;2023-05-20T07:12:23;15.80;66.30
71994;DHT22;59861;50.268;8.648;2023-05-20T07:14:50;15.80;66.30
71994;DHT22;59861;50.268;8.648;2023-05-20T07:17:17;15.80;66.40
71994;DHT22;59861;50.268;8.648;2023-05-20T07:19:43;15.80;66.50
71994;DHT22;59861;50.268;8.648;2023-05-20T07:22:10;15.80;66.30
71994;DHT22;59861;50.268;8.648;2023-05-20T07:24:37;15.80;66.40
71994;DHT22;59861;50.268;8.648;2023-05-20T07:27:04;15.80;66.30
71994;DHT22;59861;50.268;8.648;2023-05-20T07:29:33;15.80;66.40
71994;DHT22;59861;50.268;8.648;2023-05-20T07:31:59;15.80;66.10
71994;DHT22;59861;50.268;8.648;2023-05-20T07:34:26;15.80;66.90
71994;DHT22;59861;50.268;8.648;2023-05-20T07:36:53;15.80;66.40
71994;DHT22;59861;50.268;8.648;2023-05-20T07:39:19;15.70;66.80
71994;DHT22;59861;50.268;8.648;2023-05-20T07:41:46;15.70;65.90
71994;DHT22;59861;50.268;8.648;2023-05-20T07:44:13;15.70;65.90
71994;DHT22;59861;50.268;8.648;2023-05-20T07:46:40;15.70;66.10
71994;DHT22;59861;50.268;8.648;2023-05-20T07:49:07;15.70;66.40
71994;DHT22;59861;50.268;8.648;2023-05-20T07:51:33;15.80;66.60
71994;DHT22;59861;50.268;8.648;2023-05-20T07:54:00;15.80;66.50
71994;DHT22;59861;50.268;8.648;2023-05-20T07:56:27;15.90;66.50
71994;DHT22;59861;50.268;8.648;2023-05-20T07:58:55;15.90;66.50
71994;DHT22;59861;50.268;8.648;2023-05-20T08:01:23;15.90;66.40
71994;DHT22;59861;50.268;8.648;2023-05-20T08:03:50;15.90;66.50
71994;DHT22;59861;50.268;8.648;2023-05-20T08:06:17;16.00;66.90
71994;DHT22;59861;50.268;8.648;2023-05-20T08:08:46;16.00;66.80
71994;DHT22;59861;50.268;8.648;2023-05-20T08:11:13;16.00;67.00
71994;DHT22;59861;50.268;8.648;2023-05-20T08:13:40;16.10;67.30
71994;DHT22;59861;50.268;8.648;2023-05-20T08:16:06;16.10;67.50
71994;DHT22;59861;50.268;8.648;2023-05-20T08:18:34;16.10;67.70
71994;DHT22;59861;50.268;8.648;2023-05-20T08:21:04;16.10;68.00
71994;DHT22;59861;50.268;8.648;2023-05-20T08:23:33;16.10;68.20
71994;DHT22;59861;50.268;8.648;2023-05-20T08:26:00;16.10;68.30
71994;DHT22;59861;50.268;8.648;2023-05-20T08:28:27;16.10;68.60
71994;DHT22;59861;50.268;8.648;2023-05-20T08:30:54;16.10;68.60
71994;DHT22;59861;50.268;8.648;2023-05-20T08:33:21;16.10;68.40
71994;DHT22;59861;50.268;8.648;2023-05-20T08:35:48;16.10;68.40
71994;DHT22;59861;50.268;8.648;2023-05-20T08:38:15;16.10;68.80
71994;DHT22;59861;50.268;8.648;2023-05-20T08:40:42;16.20;69.00
71994;DHT22;59861;50.268;8.648;2023-05-20T08:43:09;16.20;68.70
71994;DHT22;59861;50.268;8.648;2023-05-20T08:45:36;16.20;68.70
71994;DHT22;59861;50.268;8.648;2023-05-20T08:48:03;16.20;68.70
71994;DHT22;59861;50.268;8.648;2023-05-20T08:50:30;16.20;69.80
71994;DHT22;59861;50.268;8.648;2023-05-20T08:52:57;16.20;69.10
71994;DHT22;59861;50.268;8.648;2023-05-20T08:55:41;16.10;69.20
71994;DHT22;59861;50.268;8.648;2023-05-20T08:58:05;16.10;69.20
71994;DHT22;59861;50.268;8.648;2023-05-20T09:00:32;16.20;69.50
71994;DHT22;59861;50.268;8.648;2023-05-20T09:02:59;16.10;69.50
71994;DHT22;59861;50.268;8.648;2023-05-20T09:05:26;16.10;69.60
71994;DHT22;59861;50.268;8.648;2023-05-20T09:08:03;16.10;69.70
71994;DHT22;59861;50.268;8.648;2023-05-20T09:10:21;16.10;69.80
71994;DHT22;59861;50.268;8.648;2023-05-20T09:12:48;16.10;69.70
71994;DHT22;59861;50.268;8.648;2023-05-20T09:15:15;16.20;70.30
71994;DHT22;59861;50.268;8.648;2023-05-20T09:17:42;16.20;70.00
71994;DHT22;59861;50.268;8.648;2023-05-20T09:20:09;16.20;69.80
71994;DHT22;59861;50.268;8.648;2023-05-20T09:22:37;16.20;69.70
71994;DHT22;59861;50.268;8.648;2023-05-20T09:25:04;16.20;69.70
71994;DHT22;59861;50.268;8.648;2023-05-20T09:27:31;16.20;69.60
71994;DHT22;59861;50.268;8.648;2023-05-20T09:29:58;16.20;69.70
71994;DHT22;59861;50.268;8.648;2023-05-20T09:32:25;16.10;69.60
71994;DHT22;59861;50.268;8.648;2023-05-20T09:34:53;16.20;69.60
71994;DHT22;59861;50.268;8.648;2023-05-20T09:37:20;16.20;69.60
71994;DHT22;59861;50.268;8.648;2023-05-20T09:39:59;16.20;69.40
71994;DHT22;59861;50.268;8.648;2023-05-20T09:42:25;16.20;69.40
71994;DHT22;59861;50.268;8.648;2023-05-20T09:44:54;16.20;69.40
71994;DHT22;59861;50.268;8.648;2023-05-20T09:47:22;16.20;69.30
71994;DHT22;59861;50.268;8.648;2023-05-20T09:49:50;16.20;69.20
71994;DHT22;59861;50.268;8.648;2023-05-20T09:52:17;16.20;69.20
71994;DHT22;59861;50.268;8.648;2023-05-20T09:54:44;16.20;69.10
71994;DHT22;59861;50.268;8.648;2023-05-20T09:57:12;16.20;69.20
71994;DHT22;59861;50.268;8.648;2023-05-20T09:59:39;16.20;69.10
71994;DHT22;59861;50.268;8.648;2023-05-20T10:02:07;16.20;69.10
71994;DHT22;59861;50.268;8.648;2023-05-20T10:04:35;16.20;69.10
71994;DHT22;59861;50.268;8.648;2023-05-20T10:09:56;16.20;69.00
71994;DHT22;59861;50.268;8.648;2023-05-20T10:19:58;16.30;69.20
71994;DHT22;59861;50.268;8.648;2023-05-20T10:22:26;16.20;69.00
71994;DHT22;59861;50.268;8.648;2023-05-20T10:25:22;16.20;69.10
71994;DHT22;59861;50.268;8.648;2023-05-20T10:27:45;16.20;69.20
71994;DHT22;59861;50.268;8.648;2023-05-20T10:30:16;16.20;69.10
71994;DHT22;59861;50.268;8.648;2023-05-20T10:32:53;16.20;69.30
71994;DHT22;59861;50.268;8.648;2023-05-20T10:35:24;16.20;69.20
71994;DHT22;59861;50.268;8.648;2023-05-20T10:37:52;16.20;69.20
71994;DHT22;59861;50.268;8.648;2023-05-20T10:40:19;16.20;69.30
71994;DHT22;59861;50.268;8.648;2023-05-20T10:42:46;16.20;69.30
71994;DHT22;59861;50.268;8.648;2023-05-20T10:45:26;16.20;69.40
71994;DHT22;59861;50.268;8.648;2023-05-20T10:47:55;16.20;69.40
71994;DHT22;59861;50.268;8.648;2023-05-20T10:50:32;16.20;69.30
71994;DHT22;59861;50.268;8.648;2023-05-20T10:53:01;16.20;70.30
71994;DHT22;59861;50.268;8.648;2023-05-20T10:55:22;16.20;69.30
71994;DHT22;59861;50.268;8.648;2023-05-20T10:57:50;16.20;69.40
71994;DHT22;59861;50.268;8.648;2023-05-20T11:00:17;16.20;69.40
71994;DHT22;59861;50.268;8.648;2023-05-20T11:02:44;16.20;69.40
71994;DHT22;59861;50.268;8.648;2023-05-20T11:05:11;16.20;69.50
71994;DHT22;59861;50.268;8.648;2023-05-20T11:07:38;16.20;69.50
71994;DHT22;59861;50.268;8.648;2023-05-20T11:10:06;16.20;69.40
71994;DHT22;59861;50.268;8.648;2023-05-20T11:12:33;16.20;69.40
71994;DHT22;59861;50.268;8.648;2023-05-20T11:15:00;16.20;69.50
71994;DHT22;59861;50.268;8.648;2023-05-20T11:17:27;16.20;69.60
71994;DHT22;59861;50.268;8.648;2023-05-20T11:19:54;16.30;69.70
71994;DHT22;59861;50.268;8.648;2023-05-20T11:22:21;16.30;69.40
71994;DHT22;59861;50.268;8.648;2023-05-20T11:24:48;16.30;69.50
71994;DHT22;59861;50.268;8.648;2023-05-20T11:27:14;16.30;69.60
71994;DHT22;59861;50.268;8.648;2023-05-20T11:29:41;16.30;70.90
71994;DHT22;59861;50.268;8.648;2023-05-20T11:32:08;16.30;69.80
71994;DHT22;59861;50.268;8.648;2023-05-20T11:34:36;16.30;69.70
71994;DHT22;59861;50.268;8.648;2023-05-20T11:37:06;16.30;69.80
71994;DHT22;59861;50.268;8.648;2023-05-20T11:39:34;16.30;69.90
71994;DHT22;59861;50.268;8.648;2023-05-20T11:42:01;16.30;70.10
71994;DHT22;59861;50.268;8.648;2023-05-20T11:44:28;16.30;70.00
71994;DHT22;59861;50.268;8.648;2023-05-20T11:46:59;16.30;70.10
71994;DHT22;59861;50.268;8.648;2023-05-20T11:49:26;16.20;70.10
71994;DHT22;59861;50.268;8.648;2023-05-20T11:51:53;16.30;70.20
71994;DHT22;59861;50.268;8.648;2023-05-20T11:54:21;16.20;70.10
71994;DHT22;59861;50.268;8.648;2023-05-20T11:56:49;16.20;70.20
71994;DHT22;59861;50.268;8.648;2023-05-20T11:59:16;16.30;71.10
71994;DHT22;59861;50.268;8.648;2023-05-20T12:01:43;16.20;70.10
71994;DHT22;59861;50.268;8.648;2023-05-20T12:04:10;16.20;70.10
71994;DHT22;59861;50.268;8.648;2023-05-20T12:06:38;16.20;70.30
71994;DHT22;59861;50.268;8.648;2023-05-20T12:09:07;16.20;70.30
71994;DHT22;59861;50.268;8.648;2023-05-20T12:11:35;16.20;70.30
71994;DHT22;59861;50.268;8.648;2023-05-20T12:14:02;16.20;70.30
71994;DHT22;59861;50.268;8.648;2023-05-20T12:16:30;16.20;70.10
71994;DHT22;59861;50.268;8.648;2023-05-20T12:18:57;16.30;70.30
71994;DHT22;59861;50.268;8.648;2023-05-20T12:21:24;16.20;70.20
71994;DHT22;59861;50.268;8.648;2023-05-20T12:23:51;16.20;70.20
71994;DHT22;59861;50.268;8.648;2023-05-20T12:26:20;16.20;70.30
71994;DHT22;59861;50.268;8.648;2023-05-20T12:28:47;16.30;70.20
71994;DHT22;59861;50.268;8.648;2023-05-20T12:31:14;16.30;70.30
71994;DHT22;59861;50.268;8.648;2023-05-20T12:33:41;16.30;70.30
71994;DHT22;59861;50.268;8.648;2023-05-20T12:36:08;16.30;70.30
71994;DHT22;59861;50.268;8.648;2023-05-20T12:38:35;16.30;70.20
71994;DHT22;59861;50.268;8.648;2023-05-20T12:41:02;16.30;70.50
71994;DHT22;59861;50.268;8.648;2023-05-20T12:43:28;16.30;70.00
71994;DHT22;59861;50.268;8.648;2023-05-20T12:45:55;16.30;70.40
71994;DHT22;59861;50.268;8.648;2023-05-20T12:48:22;16.30;70.40
71994;DHT22;59861;50.268;8.648;2023-05-20T12:50:50;16.30;70.50
71994;DHT22;59861;50.268;8.648;2023-05-20T12:53:17;16.30;70.40
71994;DHT22;59861;50.268;8.648;2023-05-20T12:55:43;16.30;70.40
71994;DHT22;59861;50.268;8.648;2023-05-20T12:58:11;16.30;70.30
71994;DHT22;59861;50.268;8.648;2023-05-20T13:00:37;16.30;70.50
71994;DHT22;59861;50.268;8.648;2023-05-20T13:03:04;16.30;70.40
71994;DHT22;59861;50.268;8.648;2023-05-20T13:05:31;16.30;70.40
71994;DHT22;59861;50.268;8.648;2023-05-20T13:07:58;16.30;70.50
71994;DHT22;59861;50.268;8.648;2023-05-20T13:10:24;16.30;71.30
71994;DHT22;59861;50.268;8.648;2023-05-20T13:12:52;16.30;70.40
71994;DHT22;59861;50.268;8.648;2023-05-20T13:15:19;16.30;70.60
71994;DHT22;59861;50.268;8.648;2023-05-20T13:17:45;16.30;71.50
71994;DHT22;59861;50.268;8.648;2023-05-20T13:20:12;16.30;70.50
71994;DHT22;59861;50.268;8.648;2023-05-20T13:22:39;16.30;70.60
71994;DHT22;59861;50.268;8.648;2023-05-20T13:25:06;16.30;70.50
71994;DHT22;59861;50.268;8.648;2023-05-20T13:27:33;16.30;70.50
71994;DHT22;59861;50.268;8.648;2023-05-20T13:30:01;16.30;70.50
71994;DHT22;59861;50.268;8.648;2023-05-20T13:32:28;16.30;70.50
71994;DHT22;59861;50.268;8.648;2023-05-20T13:34:55;16.30;70.50
71994;DHT22;59861;50.268;8.648;2023-05-20T13:37:24;16.30;70.50
71994;DHT22;59861;50.268;8.648;2023-05-20T13:39:51;16.30;70.60
71994;DHT22;59861;50.268;8.648;2023-05-20T13:42:17;16.30;70.60
71994;DHT22;59861;50.268;8.648;2023-05-20T13:44:45;16.30;70.60
71994;DHT22;59861;50.268;8.648;2023-05-20T13:47:12;16.30;70.60
71994;DHT22;59861;50.268;8.648;2023-05-20T13:49:38;16.30;70.60
71994;DHT22;59861;50.268;8.648;2023-05-20T13:52:05;16.30;70.70
71994;DHT22;59861;50.268;8.648;2023-05-20T13:54:32;16.30;70.60
71994;DHT22;59861;50.268;8.648;2023-05-20T13:56:59;16.30;70.70
71994;DHT22;59861;50.268;8.648;2023-05-20T13:59:26;16.30;70.70
71994;DHT22;59861;50.268;8.648;2023-05-20T14:01:53;16.30;70.70
71994;DHT22;59861;50.268;8.648;2023-05-20T14:04:20;16.30;70.90
71994;DHT22;59861;50.268;8.648;2023-05-20T14:06:47;16.30;70.70
71994;DHT22;59861;50.268;8.648;2023-05-20T14:09:13;16.30;70.70
71994;DHT22;59861;50.268;8.648;2023-05-20T14:11:40;16.40;70.90
71994;DHT22;59861;50.268;8.648;2023-05-20T14:14:07;16.30;70.80
71994;DHT22;59861;50.268;8.648;2023-05-20T14:16:34;16.30;70.80
71994;DHT22;59861;50.268;8.648;2023-05-20T14:19:01;16.30;70.80
71994;DHT22;59861;50.268;8.648;2023-05-20T14:21:28;16.30;70.70
71994;DHT22;59861;50.268;8.648;2023-05-20T14:23:56;16.30;70.70
71994;DHT22;59861;50.268;8.648;2023-05-20T14:26:23;16.30;70.70
71994;DHT22;59861;50.268;8.648;2023-05-20T14:28:50;16.30;70.80
71994;DHT22;59861;50.268;8.648;2023-05-20T14:31:17;16.30;70.80
71994;DHT22;59861;50.268;8.648;2023-05-20T14:33:44;16.40;70.80
71994;DHT22;59861;50.268;8.648;2023-05-20T14:36:10;16.30;70.70
71994;DHT22;59861;50.268;8.648;2023-05-20T14:38:37;16.30;70.80
71994;DHT22;59861;50.268;8.648;2023-05-20T14:41:04;16.30;70.80
71994;DHT22;59861;50.268;8.648;2023-05-20T14:43:31;16.30;70.70
71994;DHT22;59861;50.268;8.648;2023-05-20T14:45:58;16.30;70.80
71994;DHT22;59861;50.268;8.648;2023-05-20T14:48:24;16.30;70.80
71994;DHT22;59861;50.268;8.648;2023-05-20T14:50:51;16.40;70.90
71994;DHT22;59861;50.268;8.648;2023-05-20T14:53:18;16.40;70.90
71994;DHT22;59861;50.268;8.648;2023-05-20T14:55:45;16.40;70.80
71994;DHT22;59861;50.268;8.648;2023-05-20T14:58:12;16.30;70.80
71994;DHT22;59861;50.268;8.648;2023-05-20T15:00:38;16.40;70.90
71994;DHT22;59861;50.268;8.648;2023-05-20T15:03:05;16.40;70.80
71994;DHT22;59861;50.268;8.648;2023-05-20T15:05:32;16.40;70.90
71994;DHT22;59861;50.268;8.648;2023-05-20T15:07:59;16.30;70.80
71994;DHT22;59861;50.268;8.648;2023-05-20T15:10:26;16.40;70.80
71994;DHT22;59861;50.268;8.648;2023-05-20T15:12:53;16.40;70.80
71994;DHT22;59861;50.268;8.648;2023-05-20T15:15:20;16.40;70.90
71994;DHT22;59861;50.268;8.648;2023-05-20T15:17:47;16.40;70.90
71994;DHT22;59861;50.268;8.648;2023-05-20T15:20:13;16.40;71.00
71994;DHT22;59861;50.268;8.648;2023-05-20T15:22:41;16.40;70.90
71994;DHT22;59861;50.268;8.648;2023-05-20T15:25:10;16.40;70.90
71994;DHT22;59861;50.268;8.648;2023-05-20T15:27:36;16.40;71.00
71994;DHT22;59861;50.268;8.648;2023-05-20T15:30:03;16.40;70.90
71994;DHT22;59861;50.268;8.648;2023-05-20T15:32:30;16.40;71.00
71994;DHT22;59861;50.268;8.648;2023-05-20T15:34:57;16.40;71.00
71994;DHT22;59861;50.268;8.648;2023-05-20T15:37:24;16.40;70.90
71994;DHT22;59861;50.268;8.648;2023-05-20T15:39:51;16.40;71.00